createdAt,value
2017-11-29T00:00:21.433Z,2.10
2017-11-29T00:02:50.514Z,2.20
2017-11-29T00:05:18.637Z,2.47
2017-11-29T00:07:46.784Z,2.73
2017-11-29T00:10:15.680Z,2.83
2017-11-29T00:12:44.594Z,2.83
2017-11-29T00:15:13.472Z,2.80
2017-11-29T00:17:41.606Z,2.30
2017-11-29T00:20:09.820Z,2.77
2017-11-29T00:22:37.987Z,2.27
2017-11-29T00:25:06.122Z,2.80
2017-11-29T00:27:34.250Z,2.10
2017-11-29T00:30:02.406Z,2.30
2017-11-29T00:32:30.576Z,2.70
2017-11-29T00:34:58.811Z,2.20
2017-11-29T00:37:26.970Z,2.30
2017-11-29T00:39:55.104Z,2.37
2017-11-29T00:42:23.205Z,2.43
2017-11-29T00:44:51.333Z,2.80
2017-11-29T00:47:20.214Z,2.60
2017-11-29T00:49:49.099Z,2.23
2017-11-29T00:52:18.033Z,2.23
2017-11-29T00:54:46.167Z,2.50
2017-11-29T00:57:15.067Z,2.70
2017-11-29T00:59:43.938Z,2.50
2017-11-29T01:02:12.075Z,2.53
2017-11-29T01:04:40.203Z,2.20
2017-11-29T01:07:08.326Z,2.40
2017-11-29T01:09:36.457Z,2.30
2017-11-29T01:12:04.577Z,2.33
2017-11-29T01:14:32.737Z,2.60
2017-11-29T01:17:01.935Z,2.50
2017-11-29T01:19:30.953Z,2.40
2017-11-29T01:21:59.094Z,2.20
2017-11-29T01:24:27.205Z,2.50
2017-11-29T01:26:56.107Z,2.53
2017-11-29T01:29:25.001Z,2.77
2017-11-29T01:31:53.116Z,3.03
2017-11-29T01:34:21.340Z,2.60
2017-11-29T01:36:51.017Z,2.57
2017-11-29T01:39:19.157Z,3.17
2017-11-29T01:41:47.269Z,3.60
2017-11-29T01:44:15.401Z,2.80
2017-11-29T01:46:43.541Z,3.13
2017-11-29T01:49:12.453Z,2.83
2017-11-29T01:51:40.567Z,3.30
2017-11-29T01:54:09.453Z,2.60
2017-11-29T01:56:39.116Z,2.80
2017-11-29T01:59:07.238Z,2.67
2017-11-29T02:01:36.877Z,3.20
2017-11-29T02:04:06.588Z,2.90
2017-11-29T02:06:42.510Z,2.70
2017-11-29T02:09:11.385Z,2.70
2017-11-29T02:11:39.529Z,3.47
2017-11-29T02:14:07.650Z,3.30
2017-11-29T02:16:35.771Z,2.53
2017-11-29T02:19:03.894Z,2.90
2017-11-29T02:21:32.025Z,3.17
2017-11-29T02:24:00.154Z,2.57
2017-11-29T02:26:29.387Z,2.83
2017-11-29T02:28:57.506Z,3.00
2017-11-29T02:31:25.645Z,3.10
2017-11-29T02:33:53.792Z,2.77
2017-11-29T02:36:21.923Z,3.10
2017-11-29T02:38:50.061Z,2.30
2017-11-29T02:41:30.385Z,2.37
2017-11-29T02:43:59.274Z,2.43
2017-11-29T02:46:28.270Z,2.33
2017-11-29T02:48:56.436Z,2.47
2017-11-29T02:51:25.320Z,2.30
2017-11-29T02:53:54.215Z,2.40
2017-11-29T02:56:23.121Z,2.70
2017-11-29T02:58:51.255Z,2.50
2017-11-29T03:01:19.429Z,2.60
2017-11-29T03:03:47.533Z,2.20
2017-11-29T03:06:15.664Z,2.33
2017-11-29T03:08:43.794Z,2.30
2017-11-29T03:11:11.924Z,2.57
2017-11-29T03:13:41.834Z,2.80
2017-11-29T03:16:09.944Z,2.40
2017-11-29T03:18:38.784Z,2.70
2017-11-29T03:21:06.878Z,2.63
2017-11-29T03:23:35.774Z,2.70
2017-11-29T03:26:03.914Z,3.10
2017-11-29T03:28:32.232Z,2.80
2017-11-29T03:31:00.359Z,3.03
2017-11-29T03:33:28.496Z,3.03
2017-11-29T03:35:56.626Z,2.67
2017-11-29T03:38:25.529Z,2.67
2017-11-29T03:40:53.734Z,2.80
2017-11-29T03:43:21.872Z,2.90
2017-11-29T03:45:50.771Z,2.80
2017-11-29T03:48:18.898Z,2.80
2017-11-29T03:50:47.017Z,3.00
2017-11-29T03:53:15.737Z,2.73
2017-11-29T03:55:43.869Z,2.70
2017-11-29T03:58:12.761Z,3.40
2017-11-29T04:00:40.873Z,3.23
2017-11-29T04:03:09.001Z,2.83
2017-11-29T04:05:37.134Z,2.87
2017-11-29T04:08:05.259Z,3.27
2017-11-29T04:10:33.590Z,3.03
2017-11-29T04:13:01.732Z,3.00
2017-11-29T04:15:29.860Z,3.27
2017-11-29T04:17:58.750Z,3.17
2017-11-29T04:20:27.649Z,3.50
2017-11-29T04:22:55.800Z,3.67
2017-11-29T04:25:24.759Z,3.70
2017-11-29T04:27:54.410Z,3.50
2017-11-29T04:30:23.287Z,3.80
2017-11-29T04:32:52.916Z,4.20
2017-11-29T04:35:21.122Z,4.50
2017-11-29T04:37:49.257Z,4.30
2017-11-29T04:40:19.109Z,4.57
2017-11-29T04:42:47.303Z,4.50
2017-11-29T04:45:15.437Z,4.80
2017-11-29T04:47:43.557Z,5.70
2017-11-29T04:50:11.686Z,4.87
2017-11-29T04:52:39.808Z,4.60
2017-11-29T04:55:07.939Z,4.63
2017-11-29T04:57:36.125Z,4.87
2017-11-29T05:00:05.037Z,5.17
2017-11-29T05:02:33.173Z,5.07
2017-11-29T05:05:01.317Z,5.60
2017-11-29T05:07:30.408Z,8.23
2017-11-29T05:09:59.294Z,8.43
2017-11-29T05:12:27.430Z,5.73
2017-11-29T05:14:56.390Z,6.33
2017-11-29T05:17:24.562Z,6.10
2017-11-29T05:19:53.025Z,5.73
2017-11-29T05:22:22.539Z,6.50
2017-11-29T05:24:50.680Z,6.20
2017-11-29T05:27:18.795Z,5.40
2017-11-29T05:29:48.545Z,6.10
2017-11-29T05:32:16.781Z,5.43
2017-11-29T05:34:45.707Z,6.07
2017-11-29T05:37:13.848Z,5.87
2017-11-29T05:39:41.982Z,5.67
2017-11-29T05:42:10.883Z,5.40
2017-11-29T05:44:39.027Z,6.37
2017-11-29T05:47:07.722Z,6.50
2017-11-29T05:49:36.611Z,6.90
2017-11-29T05:52:05.945Z,12.83
2017-11-29T05:54:34.124Z,10.00
2017-11-29T05:57:02.242Z,9.50
2017-11-29T05:59:31.145Z,9.10
2017-11-29T06:02:00.039Z,6.67
2017-11-29T06:04:28.934Z,6.93
2017-11-29T06:06:57.071Z,8.77
2017-11-29T06:09:25.213Z,7.10
2017-11-29T06:11:53.329Z,7.80
2017-11-29T06:14:22.251Z,9.80
2017-11-29T06:16:50.361Z,8.50
2017-11-29T06:19:18.494Z,7.80
2017-11-29T06:21:46.661Z,8.07
2017-11-29T06:24:14.798Z,7.13
2017-11-29T06:26:42.917Z,6.63
2017-11-29T06:29:11.085Z,6.17
2017-11-29T06:31:39.210Z,5.23
2017-11-29T06:34:07.345Z,5.57
2017-11-29T06:36:35.469Z,6.60
2017-11-29T06:39:04.370Z,5.80
2017-11-29T06:41:33.352Z,5.30
2017-11-29T06:44:01.459Z,5.93
2017-11-29T06:46:29.607Z,6.53
2017-11-29T06:48:58.490Z,6.50
2017-11-29T06:51:26.643Z,6.67
2017-11-29T06:53:54.741Z,6.50
2017-11-29T06:56:23.661Z,6.63
2017-11-29T06:58:51.785Z,7.23
2017-11-29T07:01:20.678Z,6.93
2017-11-29T07:03:49.599Z,6.80
2017-11-29T07:06:17.745Z,7.80
2017-11-29T07:08:46.674Z,7.43
2017-11-29T07:11:14.809Z,5.80
2017-11-29T07:13:43.748Z,5.23
2017-11-29T07:16:11.857Z,6.07
2017-11-29T07:18:39.986Z,6.40
2017-11-29T07:21:08.294Z,6.43
2017-11-29T07:23:36.493Z,5.60
2017-11-29T07:26:05.422Z,6.20
2017-11-29T07:28:33.542Z,4.77
2017-11-29T07:31:01.677Z,4.63
2017-11-29T07:33:29.834Z,4.23
2017-11-29T07:35:57.945Z,4.30
2017-11-29T07:38:26.087Z,4.27
2017-11-29T07:40:54.201Z,5.90
2017-11-29T07:43:23.563Z,4.40
2017-11-29T07:45:51.699Z,5.53
2017-11-29T07:48:20.577Z,6.70
2017-11-29T07:50:49.477Z,6.73
2017-11-29T07:53:19.410Z,5.53
2017-11-29T07:55:47.591Z,6.97
2017-11-29T07:58:15.777Z,6.30
2017-11-29T08:00:43.909Z,7.33
2017-11-29T08:03:12.827Z,7.50
2017-11-29T08:05:40.976Z,6.20
2017-11-29T08:08:09.873Z,8.27
2017-11-29T08:10:38.898Z,6.50
2017-11-29T08:13:07.083Z,7.40
2017-11-29T08:15:35.208Z,7.17
2017-11-29T08:18:03.353Z,7.33
2017-11-29T08:20:31.509Z,8.20
2017-11-29T08:23:00.535Z,8.37
2017-11-29T08:25:29.449Z,8.67
2017-11-29T08:27:57.717Z,8.13
2017-11-29T08:30:25.896Z,12.10
2017-11-29T08:32:57.045Z,12.00
2017-11-29T08:35:25.194Z,10.40
2017-11-29T08:37:54.138Z,11.67
2017-11-29T08:40:22.278Z,11.47
2017-11-29T08:42:50.457Z,13.73
2017-11-29T08:45:18.598Z,13.57
2017-11-29T08:47:47.629Z,13.30
2017-11-29T08:50:15.772Z,14.60
2017-11-29T08:52:43.913Z,15.07
2017-11-29T08:55:12.798Z,14.30
2017-11-29T08:57:40.956Z,14.80
2017-11-29T09:00:09.651Z,15.40
2017-11-29T09:02:37.910Z,15.70
2017-11-29T09:05:06.198Z,15.53
2017-11-29T09:07:35.121Z,17.07
2017-11-29T09:10:04.054Z,15.00
2017-11-29T09:12:32.206Z,14.30
2017-11-29T09:15:00.350Z,15.17
2017-11-29T09:17:29.257Z,15.60
2017-11-29T09:19:57.392Z,16.00
2017-11-29T09:22:26.383Z,15.67
2017-11-29T09:24:55.698Z,15.77
2017-11-29T09:27:23.850Z,14.80
2017-11-29T09:29:52.030Z,17.53
2017-11-29T09:32:20.986Z,13.73
2017-11-29T09:34:49.137Z,13.97
2017-11-29T09:37:17.301Z,13.60
2017-11-29T09:39:46.219Z,13.60
2017-11-29T09:42:14.413Z,11.10
2017-11-29T09:44:42.551Z,12.30
2017-11-29T09:47:11.335Z,11.60
2017-11-29T09:49:39.464Z,11.27
2017-11-29T09:52:07.611Z,10.70
2017-11-29T09:54:35.738Z,11.83
2017-11-29T09:57:05.290Z,11.87
2017-11-29T09:59:33.430Z,14.30
2017-11-29T10:02:03.482Z,13.10
2017-11-29T10:04:31.626Z,10.90
2017-11-29T10:07:01.913Z,11.10
2017-11-29T10:09:31.626Z,9.50
2017-11-29T10:12:00.542Z,10.40
2017-11-29T10:14:30.417Z,11.10
2017-11-29T10:16:58.549Z,10.40
2017-11-29T10:19:26.695Z,10.90
2017-11-29T10:21:54.822Z,11.43
2017-11-29T10:24:23.002Z,10.00
2017-11-29T10:26:51.145Z,11.27
2017-11-29T10:29:19.349Z,11.27
2017-11-29T10:31:47.504Z,10.50
2017-11-29T10:34:15.648Z,10.40
2017-11-29T10:36:43.791Z,10.70
2017-11-29T10:39:13.092Z,11.40
2017-11-29T10:41:41.257Z,10.07
2017-11-29T10:44:09.465Z,10.30
2017-11-29T10:46:37.601Z,11.10
2017-11-29T10:49:05.836Z,9.97
2017-11-29T10:51:34.014Z,10.73
2017-11-29T10:54:02.141Z,10.57
2017-11-29T10:56:30.294Z,10.07
2017-11-29T10:58:58.418Z,10.00
2017-11-29T11:01:26.554Z,9.80
2017-11-29T11:03:56.966Z,9.27
2017-11-29T11:06:25.883Z,11.23
2017-11-29T11:08:54.762Z,9.60
2017-11-29T11:11:24.344Z,8.93
2017-11-29T11:13:52.476Z,10.40
2017-11-29T11:16:21.395Z,10.20
2017-11-29T11:18:49.521Z,10.43
2017-11-29T11:21:17.648Z,9.73
2017-11-29T11:23:45.799Z,9.00
2017-11-29T11:26:13.914Z,9.90
2017-11-29T11:28:42.829Z,9.37
2017-11-29T11:31:11.840Z,10.40
2017-11-29T11:33:39.954Z,7.70
2017-11-29T11:36:08.133Z,7.43
2017-11-29T11:38:36.265Z,8.00
2017-11-29T11:41:04.402Z,6.60
2017-11-29T11:43:32.532Z,6.60
2017-11-29T11:46:00.662Z,6.20
2017-11-29T11:48:28.897Z,7.03
2017-11-29T11:50:57.035Z,6.40
2017-11-29T11:53:25.222Z,7.30
2017-11-29T11:55:53.331Z,6.87
2017-11-29T11:58:22.241Z,7.30
2017-11-29T12:00:50.357Z,6.70
2017-11-29T12:03:19.065Z,7.60
2017-11-29T12:05:47.986Z,7.23
2017-11-29T12:08:16.120Z,6.93
2017-11-29T12:10:45.093Z,7.53
2017-11-29T12:13:13.214Z,6.90
2017-11-29T12:15:41.333Z,7.20
2017-11-29T12:18:09.505Z,7.00
2017-11-29T12:20:37.633Z,6.60
2017-11-29T12:23:05.771Z,7.10
2017-11-29T12:25:33.894Z,8.40
2017-11-29T12:28:02.011Z,7.73
2017-11-29T12:30:32.493Z,7.03
2017-11-29T12:33:00.651Z,6.57
2017-11-29T12:35:28.762Z,6.30
2017-11-29T12:37:56.901Z,7.00
2017-11-29T12:40:27.220Z,6.97
2017-11-29T12:42:55.354Z,5.70
2017-11-29T12:45:23.540Z,6.10
2017-11-29T12:47:51.686Z,5.90
2017-11-29T12:50:31.747Z,7.47
2017-11-29T12:52:59.869Z,8.03
2017-11-29T12:55:28.021Z,9.50
2017-11-29T12:57:56.924Z,10.40
2017-11-29T13:00:25.050Z,9.07
2017-11-29T13:02:53.182Z,10.43
2017-11-29T13:05:21.304Z,10.83
2017-11-29T13:07:50.210Z,9.70
2017-11-29T13:10:19.183Z,9.93
2017-11-29T13:12:48.130Z,9.30
2017-11-29T13:15:16.229Z,7.50
2017-11-29T13:17:44.361Z,7.27
2017-11-29T13:20:12.589Z,6.50
2017-11-29T13:22:40.757Z,6.20
2017-11-29T13:25:09.524Z,7.63
2017-11-29T13:27:37.646Z,7.30
2017-11-29T13:30:09.886Z,7.40
2017-11-29T13:32:38.045Z,7.67
2017-11-29T13:35:06.205Z,7.57
2017-11-29T13:37:36.388Z,6.93
2017-11-29T13:40:04.635Z,6.90
2017-11-29T13:42:33.522Z,6.07
2017-11-29T13:45:01.756Z,7.30
2017-11-29T13:47:29.878Z,7.00
2017-11-29T13:49:59.804Z,6.53
2017-11-29T13:52:28.677Z,6.17
2017-11-29T13:54:57.594Z,4.83
2017-11-29T13:57:26.473Z,4.80
2017-11-29T13:59:54.653Z,4.50
2017-11-29T14:02:22.792Z,4.60
2017-11-29T14:04:50.915Z,3.50
2017-11-29T14:07:19.045Z,3.47
2017-11-29T14:09:47.949Z,3.40
2017-11-29T14:12:17.156Z,3.60
2017-11-29T14:14:47.446Z,3.60
2017-11-29T14:17:15.645Z,3.30
2017-11-29T14:19:45.367Z,3.03
2017-11-29T14:22:14.237Z,3.43
2017-11-29T14:24:43.176Z,4.23
2017-11-29T14:27:11.328Z,3.10
2017-11-29T14:29:39.470Z,3.53
2017-11-29T14:32:08.362Z,3.30
2017-11-29T14:34:37.262Z,3.40
2017-11-29T14:37:05.385Z,3.33
2017-11-29T14:39:33.547Z,3.10
2017-11-29T14:42:02.450Z,3.30
2017-11-29T14:44:31.498Z,2.97
2017-11-29T14:46:59.617Z,3.00
2017-11-29T14:49:28.747Z,3.20
2017-11-29T14:51:57.662Z,3.80
2017-11-29T14:54:25.799Z,2.93
2017-11-29T14:56:53.945Z,4.53
2017-11-29T14:59:22.074Z,3.27
2017-11-29T15:01:50.245Z,3.40
2017-11-29T15:04:22.661Z,3.23
2017-11-29T15:06:50.817Z,3.33
2017-11-29T15:09:19.388Z,3.87
2017-11-29T15:11:47.550Z,3.43
2017-11-29T15:14:15.654Z,4.00
2017-11-29T15:16:44.554Z,4.13
2017-11-29T15:19:12.693Z,5.27
2017-11-29T15:21:40.807Z,4.73
2017-11-29T15:24:08.977Z,6.77
2017-11-29T15:26:37.101Z,7.10
2017-11-29T15:29:06.358Z,8.27
2017-11-29T15:31:34.468Z,9.80
2017-11-29T15:34:03.567Z,9.17
2017-11-29T15:36:32.664Z,12.87
2017-11-29T15:39:00.836Z,11.83
2017-11-29T15:41:28.960Z,11.13
2017-11-29T15:43:57.646Z,11.10
2017-11-29T15:46:27.312Z,10.47
2017-11-29T15:48:55.456Z,10.23
2017-11-29T15:51:24.388Z,8.00
2017-11-29T15:53:52.536Z,6.83
2017-11-29T15:56:20.678Z,6.60
2017-11-29T15:58:50.526Z,7.17
2017-11-29T16:01:18.710Z,8.47
2017-11-29T16:03:46.841Z,10.77
2017-11-29T16:06:15.768Z,9.67
2017-11-29T16:08:43.894Z,14.60
2017-11-29T16:11:12.065Z,15.30
2017-11-29T16:13:40.254Z,15.27
2017-11-29T16:16:08.438Z,14.63
2017-11-29T16:18:37.469Z,13.10
2017-11-29T16:21:06.261Z,11.77
2017-11-29T16:23:34.429Z,11.00
2017-11-29T16:26:02.561Z,11.33
2017-11-29T16:28:30.722Z,11.73
2017-11-29T16:30:59.630Z,17.70
2017-11-29T16:33:27.794Z,12.10
2017-11-29T16:36:09.070Z,13.57
2017-11-29T16:38:37.341Z,18.67
2017-11-29T16:41:05.491Z,21.90
2017-11-29T16:43:33.709Z,22.97
2017-11-29T16:46:02.801Z,28.17
2017-11-29T16:48:30.978Z,26.13
2017-11-29T16:50:59.404Z,17.77
2017-11-29T16:53:27.602Z,13.80
2017-11-29T16:55:55.740Z,17.10
2017-11-29T16:58:27.573Z,12.70
2017-11-29T17:00:55.769Z,10.00
2017-11-29T17:03:23.957Z,10.23
2017-11-29T17:05:52.206Z,7.70
2017-11-29T17:08:20.499Z,8.87
2017-11-29T17:10:48.785Z,9.50
2017-11-29T17:13:17.095Z,8.83
2017-11-29T17:15:46.075Z,11.20
2017-11-29T17:18:15.201Z,13.20
2017-11-29T17:20:53.716Z,13.03
2017-11-29T17:23:22.728Z,17.97
2017-11-29T17:25:50.906Z,14.83
2017-11-29T17:28:19.828Z,15.60
2017-11-29T17:30:48.047Z,18.67
2017-11-29T17:36:20.670Z,17.60
2017-11-29T17:43:44.490Z,12.50
2017-11-29T17:48:58.149Z,14.83
2017-11-29T17:51:43.888Z,14.00
2017-11-29T17:54:12.297Z,12.83
2017-11-29T17:56:41.637Z,13.80
2017-11-29T17:59:19.632Z,14.50
2017-11-29T18:02:00.152Z,13.27
2017-11-29T18:04:37.822Z,13.80
2017-11-29T18:07:19.248Z,13.30
2017-11-29T18:12:51.478Z,15.60
2017-11-29T18:15:19.713Z,18.50
2017-11-29T18:17:50.451Z,21.47
2017-11-29T18:20:20.450Z,25.47
2017-11-29T18:22:48.700Z,24.13
2017-11-29T18:25:18.900Z,23.30
2017-11-29T18:27:47.395Z,26.87
2017-11-29T18:30:15.824Z,23.70
2017-11-29T18:32:45.695Z,34.67
2017-11-29T18:35:13.943Z,37.10
2017-11-29T18:37:42.922Z,28.93
2017-11-29T18:40:11.282Z,27.00
2017-11-29T18:42:39.447Z,22.90
2017-11-29T18:45:07.682Z,18.50
2017-11-29T18:47:36.839Z,18.73
2017-11-29T18:50:05.787Z,19.80
2017-11-29T18:52:34.933Z,22.77
2017-11-29T18:55:09.987Z,21.40
2017-11-29T18:57:38.146Z,20.90
2017-11-29T19:00:06.336Z,20.60
2017-11-29T19:02:34.597Z,20.90
2017-11-29T19:05:03.507Z,20.40
2017-11-29T19:07:31.770Z,20.60
2017-11-29T19:10:00.814Z,22.00
2017-11-29T19:12:29.010Z,22.93
2017-11-29T19:14:58.052Z,21.47
2017-11-29T19:17:27.330Z,20.93
2017-11-29T19:19:55.796Z,21.67
2017-11-29T19:22:57.059Z,25.70
2017-11-29T19:25:32.260Z,26.43
2017-11-29T19:28:16.032Z,25.37
2017-11-29T19:34:01.548Z,22.17
2017-11-29T19:48:36.054Z,23.33
2017-11-29T19:51:04.534Z,19.63
2017-11-29T19:53:33.030Z,20.33
2017-11-29T19:56:01.455Z,24.50
2017-11-29T19:58:30.715Z,22.03
2017-11-29T20:00:59.170Z,23.77
2017-11-29T20:03:27.685Z,25.53
2017-11-29T20:05:57.293Z,25.10
2017-11-29T20:08:25.759Z,23.73
2017-11-29T20:10:54.903Z,24.00
2017-11-29T20:13:23.369Z,25.83
2017-11-29T20:15:51.830Z,25.83
2017-11-29T20:18:21.071Z,23.60
2017-11-29T20:20:49.541Z,22.33
2017-11-29T20:23:18.793Z,20.20
2017-11-29T20:25:47.222Z,23.87
2017-11-29T20:28:17.321Z,21.80
2017-11-29T20:30:45.983Z,23.17
2017-11-29T20:33:14.397Z,20.23
2017-11-29T20:35:43.417Z,22.10
2017-11-29T20:38:14.313Z,19.70
2017-11-29T20:40:43.044Z,19.40
2017-11-29T20:43:12.017Z,20.60
2017-11-29T20:45:40.144Z,20.03
2017-11-29T20:48:08.298Z,18.00
2017-11-29T20:50:36.451Z,17.40
2017-11-29T20:53:05.376Z,17.87
2017-11-29T20:55:33.522Z,19.23
2017-11-29T20:58:02.920Z,19.20
2017-11-29T21:00:31.815Z,19.10
2017-11-29T21:03:00.751Z,21.47
2017-11-29T21:05:28.891Z,19.50
2017-11-29T21:07:57.043Z,18.40
2017-11-29T21:10:25.942Z,17.30
2017-11-29T21:12:54.728Z,22.90
2017-11-29T21:15:24.055Z,26.30
2017-11-29T21:17:52.197Z,27.87
2017-11-29T21:20:20.367Z,27.10
2017-11-29T21:22:49.653Z,23.13
2017-11-29T21:25:17.757Z,21.53
2017-11-29T21:27:45.924Z,19.20
2017-11-29T21:30:14.863Z,18.50
2017-11-29T21:32:42.995Z,18.00
2017-11-29T21:35:11.125Z,17.83
2017-11-29T21:37:40.877Z,18.13
2017-11-29T21:40:09.021Z,18.10
2017-11-29T21:42:37.947Z,16.20
2017-11-29T21:45:06.094Z,16.00
2017-11-29T21:47:34.254Z,16.00
2017-11-29T21:50:03.166Z,16.03
2017-11-29T21:52:32.479Z,16.33
2017-11-29T21:55:00.632Z,15.73
2017-11-29T21:57:29.544Z,14.83
2017-11-29T21:59:57.680Z,16.07
2017-11-29T22:02:26.575Z,14.87
2017-11-29T22:04:55.479Z,15.80
2017-11-29T22:07:23.621Z,14.57
2017-11-29T22:09:51.763Z,15.57
2017-11-29T22:12:19.929Z,16.20
2017-11-29T22:14:48.073Z,14.87
2017-11-29T22:17:16.209Z,15.07
2017-11-29T22:19:44.357Z,14.00
2017-11-29T22:22:12.493Z,13.70
2017-11-29T22:24:40.641Z,14.10
2017-11-29T22:27:09.536Z,14.53
2017-11-29T22:29:37.676Z,14.10
2017-11-29T22:32:05.822Z,14.73
2017-11-29T22:34:34.951Z,15.63
2017-11-29T22:37:03.076Z,14.53
2017-11-29T22:39:31.228Z,13.57
2017-11-29T22:42:00.121Z,14.40
2017-11-29T22:44:28.242Z,14.57
2017-11-29T22:46:56.380Z,14.30
2017-11-29T22:49:24.518Z,14.40
2017-11-29T22:51:53.440Z,16.60
2017-11-29T22:54:21.564Z,15.67
2017-11-29T22:56:49.717Z,16.10
2017-11-29T22:59:17.850Z,15.80
2017-11-29T23:01:45.985Z,14.07
2017-11-29T23:04:14.904Z,15.27
2017-11-29T23:06:43.017Z,14.53
2017-11-29T23:09:11.166Z,14.80
2017-11-29T23:11:39.316Z,15.70
2017-11-29T23:14:07.438Z,15.27
2017-11-29T23:16:37.158Z,14.20
2017-11-29T23:19:05.253Z,13.97
2017-11-29T23:21:34.154Z,13.97
2017-11-29T23:24:02.319Z,14.17
2017-11-29T23:26:31.206Z,15.70
2017-11-29T23:29:00.113Z,14.20
2017-11-29T23:31:28.230Z,13.80
2017-11-29T23:33:57.142Z,14.37
2017-11-29T23:36:25.282Z,13.50
2017-11-29T23:38:53.416Z,13.63
2017-11-29T23:41:22.318Z,13.40
2017-11-29T23:43:50.450Z,11.90
2017-11-29T23:46:18.569Z,12.77
2017-11-29T23:48:46.714Z,13.70
2017-11-29T23:51:15.655Z,14.20
2017-11-29T23:53:43.778Z,13.73
2017-11-29T23:56:12.698Z,13.70
2017-11-29T23:58:40.821Z,13.40
